sensor_id;sensor_type;location;lat;lon;timestamp;temperature;humidity
12329;DHT22;6230;52.390;10.256;2023-09-19T00:01:19;20.50;59.50
12329;DHT22;6230;52.390;10.256;2023-09-19T00:03:46;20.50;59.50
12329;DHT22;6230;52.390;10.256;2023-09-19T00:06:11;20.40;59.60
12329;DHT22;6230;52.390;10.256;2023-09-19T00:08:41;20.40;59.60
12329;DHT22;6230;52.390;10.256;2023-09-19T00:11:09;20.40;59.90
12329;DHT22;6230;52.390;10.256;2023-09-19T00:13:36;20.30;59.90
12329;DHT22;6230;52.390;10.256;2023-09-19T00:16:08;20.30;60.00
12329;DHT22;6230;52.390;10.256;2023-09-19T00:18:36;20.30;60.10
12329;DHT22;6230;52.390;10.256;2023-09-19T00:21:01;20.30;60.10
12329;DHT22;6230;52.390;10.256;2023-09-19T00:23:30;20.20;60.10
12329;DHT22;6230;52.390;10.256;2023-09-19T00:25:59;20.20;60.10
12329;DHT22;6230;52.390;10.256;2023-09-19T00:28:25;20.20;60.40
12329;DHT22;6230;52.390;10.256;2023-09-19T00:30:51;20.20;60.30
12329;DHT22;6230;52.390;10.256;2023-09-19T00:33:17;20.20;60.30
12329;DHT22;6230;52.390;10.256;2023-09-19T00:35:54;20.20;60.20
12329;DHT22;6230;52.390;10.256;2023-09-19T00:38:21;20.10;60.20
12329;DHT22;6230;52.390;10.256;2023-09-19T00:40:50;20.10;60.40
12329;DHT22;6230;52.390;10.256;2023-09-19T00:43:16;20.10;60.50
12329;DHT22;6230;52.390;10.256;2023-09-19T00:45:44;20.00;60.60
12329;DHT22;6230;52.390;10.256;2023-09-19T00:48:10;20.00;60.50
12329;DHT22;6230;52.390;10.256;2023-09-19T00:50:38;20.00;60.60
12329;DHT22;6230;52.390;10.256;2023-09-19T00:53:08;20.00;60.90
12329;DHT22;6230;52.390;10.256;2023-09-19T00:55:38;20.00;60.90
12329;DHT22;6230;52.390;10.256;2023-09-19T00:58:04;20.00;61.00
12329;DHT22;6230;52.390;10.256;2023-09-19T01:00:32;20.00;61.00
12329;DHT22;6230;52.390;10.256;2023-09-19T01:02:59;20.00;61.10
12329;DHT22;6230;52.390;10.256;2023-09-19T01:05:26;19.90;61.20
12329;DHT22;6230;52.390;10.256;2023-09-19T01:07:52;20.00;61.20
12329;DHT22;6230;52.390;10.256;2023-09-19T01:10:19;19.90;61.20
12329;DHT22;6230;52.390;10.256;2023-09-19T01:13:05;19.90;61.40
12329;DHT22;6230;52.390;10.256;2023-09-19T01:15:49;19.90;61.70
12329;DHT22;6230;52.390;10.256;2023-09-19T01:21:15;19.90;61.80
12329;DHT22;6230;52.390;10.256;2023-09-19T01:24:06;19.90;61.80
12329;DHT22;6230;52.390;10.256;2023-09-19T01:26:51;19.90;61.70
12329;DHT22;6230;52.390;10.256;2023-09-19T01:29:35;19.90;61.50
12329;DHT22;6230;52.390;10.256;2023-09-19T01:32:05;19.90;61.50
12329;DHT22;6230;52.390;10.256;2023-09-19T01:34:48;19.90;61.30
12329;DHT22;6230;52.390;10.256;2023-09-19T01:37:18;19.90;61.30
12329;DHT22;6230;52.390;10.256;2023-09-19T01:39:52;20.00;61.20
12329;DHT22;6230;52.390;10.256;2023-09-19T01:42:27;19.90;61.20
12329;DHT22;6230;52.390;10.256;2023-09-19T01:45:03;19.90;61.30
12329;DHT22;6230;52.390;10.256;2023-09-19T01:47:35;19.90;61.30
12329;DHT22;6230;52.390;10.256;2023-09-19T01:52:38;19.90;61.20
12329;DHT22;6230;52.390;10.256;2023-09-19T01:55:09;19.90;61.20
12329;DHT22;6230;52.390;10.256;2023-09-19T01:58:00;19.90;61.20
12329;DHT22;6230;52.390;10.256;2023-09-19T02:00:27;19.90;61.20
12329;DHT22;6230;52.390;10.256;2023-09-19T02:02:55;19.90;61.20
12329;DHT22;6230;52.390;10.256;2023-09-19T02:05:24;19.90;61.40
12329;DHT22;6230;52.390;10.256;2023-09-19T02:07:51;19.90;61.40
12329;DHT22;6230;52.390;10.256;2023-09-19T02:10:18;19.90;61.50
12329;DHT22;6230;52.390;10.256;2023-09-19T02:12:43;19.90;61.50
12329;DHT22;6230;52.390;10.256;2023-09-19T02:15:10;19.90;61.30
12329;DHT22;6230;52.390;10.256;2023-09-19T02:17:35;19.90;61.30
12329;DHT22;6230;52.390;10.256;2023-09-19T02:20:01;19.90;61.40
12329;DHT22;6230;52.390;10.256;2023-09-19T02:22:29;19.90;61.40
12329;DHT22;6230;52.390;10.256;2023-09-19T02:24:55;19.90;61.30
12329;DHT22;6230;52.390;10.256;2023-09-19T02:27:23;19.90;61.50
12329;DHT22;6230;52.390;10.256;2023-09-19T02:29:49;19.80;61.30
12329;DHT22;6230;52.390;10.256;2023-09-19T02:32:15;19.80;61.40
12329;DHT22;6230;52.390;10.256;2023-09-19T02:34:43;19.80;61.30
12329;DHT22;6230;52.390;10.256;2023-09-19T02:37:10;19.80;61.30
12329;DHT22;6230;52.390;10.256;2023-09-19T02:39:36;19.80;61.30
12329;DHT22;6230;52.390;10.256;2023-09-19T02:42:03;19.80;61.40
12329;DHT22;6230;52.390;10.256;2023-09-19T02:44:29;19.80;61.40
12329;DHT22;6230;52.390;10.256;2023-09-19T02:46:55;19.80;61.50
12329;DHT22;6230;52.390;10.256;2023-09-19T02:49:22;19.70;61.50
12329;DHT22;6230;52.390;10.256;2023-09-19T02:51:49;19.70;61.50
12329;DHT22;6230;52.390;10.256;2023-09-19T02:54:14;19.70;61.80
12329;DHT22;6230;52.390;10.256;2023-09-19T02:56:41;19.70;61.70
12329;DHT22;6230;52.390;10.256;2023-09-19T02:59:07;19.70;61.50
12329;DHT22;6230;52.390;10.256;2023-09-19T03:01:32;19.70;61.40
12329;DHT22;6230;52.390;10.256;2023-09-19T03:03:59;19.70;61.40
12329;DHT22;6230;52.390;10.256;2023-09-19T03:06:25;19.80;61.40
12329;DHT22;6230;52.390;10.256;2023-09-19T03:08:50;19.80;61.40
12329;DHT22;6230;52.390;10.256;2023-09-19T03:11:17;19.70;61.40
12329;DHT22;6230;52.390;10.256;2023-09-19T03:13:51;19.70;61.30
12329;DHT22;6230;52.390;10.256;2023-09-19T03:16:16;19.70;61.40
12329;DHT22;6230;52.390;10.256;2023-09-19T03:18:42;19.80;61.40
12329;DHT22;6230;52.390;10.256;2023-09-19T03:21:07;19.70;61.40
12329;DHT22;6230;52.390;10.256;2023-09-19T03:23:33;19.70;61.50
12329;DHT22;6230;52.390;10.256;2023-09-19T03:25:59;19.70;61.40
12329;DHT22;6230;52.390;10.256;2023-09-19T03:28:24;19.70;61.40
12329;DHT22;6230;52.390;10.256;2023-09-19T03:31:01;19.70;61.30
12329;DHT22;6230;52.390;10.256;2023-09-19T03:33:27;19.70;61.40
12329;DHT22;6230;52.390;10.256;2023-09-19T03:35:53;19.70;61.30
12329;DHT22;6230;52.390;10.256;2023-09-19T03:38:20;19.70;61.30
12329;DHT22;6230;52.390;10.256;2023-09-19T03:40:47;19.70;61.30
12329;DHT22;6230;52.390;10.256;2023-09-19T03:43:13;19.70;61.30
12329;DHT22;6230;52.390;10.256;2023-09-19T03:45:38;19.70;61.30
12329;DHT22;6230;52.390;10.256;2023-09-19T03:48:13;19.70;61.30
12329;DHT22;6230;52.390;10.256;2023-09-19T03:50:39;19.70;61.30
12329;DHT22;6230;52.390;10.256;2023-09-19T03:53:04;19.70;61.10
12329;DHT22;6230;52.390;10.256;2023-09-19T03:55:31;19.70;61.10
12329;DHT22;6230;52.390;10.256;2023-09-19T03:57:57;19.80;61.10
12329;DHT22;6230;52.390;10.256;2023-09-19T04:00:23;19.80;61.00
12329;DHT22;6230;52.390;10.256;2023-09-19T04:02:52;19.80;61.00
12329;DHT22;6230;52.390;10.256;2023-09-19T04:05:18;19.80;61.10
12329;DHT22;6230;52.390;10.256;2023-09-19T04:07:44;19.70;61.00
12329;DHT22;6230;52.390;10.256;2023-09-19T04:10:09;19.70;61.20
12329;DHT22;6230;52.390;10.256;2023-09-19T04:12:37;19.60;61.30
12329;DHT22;6230;52.390;10.256;2023-09-19T04:15:03;19.60;61.30
12329;DHT22;6230;52.390;10.256;2023-09-19T04:17:28;19.60;61.30
12329;DHT22;6230;52.390;10.256;2023-09-19T04:19:54;19.60;61.30
12329;DHT22;6230;52.390;10.256;2023-09-19T04:22:20;19.50;61.30
12329;DHT22;6230;52.390;10.256;2023-09-19T04:24:45;19.60;61.50
12329;DHT22;6230;52.390;10.256;2023-09-19T04:27:11;19.50;61.40
12329;DHT22;6230;52.390;10.256;2023-09-19T04:29:39;19.50;61.40
12329;DHT22;6230;52.390;10.256;2023-09-19T04:32:07;19.40;61.20
12329;DHT22;6230;52.390;10.256;2023-09-19T04:34:33;19.40;61.20
12329;DHT22;6230;52.390;10.256;2023-09-19T04:36:59;19.40;61.20
12329;DHT22;6230;52.390;10.256;2023-09-19T04:39:26;19.40;61.10
12329;DHT22;6230;52.390;10.256;2023-09-19T04:41:52;19.40;61.20
12329;DHT22;6230;52.390;10.256;2023-09-19T04:44:18;19.40;61.20
12329;DHT22;6230;52.390;10.256;2023-09-19T04:46:44;19.30;61.10
12329;DHT22;6230;52.390;10.256;2023-09-19T04:49:11;19.30;61.20
12329;DHT22;6230;52.390;10.256;2023-09-19T04:51:37;19.30;61.20
12329;DHT22;6230;52.390;10.256;2023-09-19T04:54:03;19.30;61.10
12329;DHT22;6230;52.390;10.256;2023-09-19T04:56:29;19.30;61.00
12329;DHT22;6230;52.390;10.256;2023-09-19T04:58:55;19.30;61.10
12329;DHT22;6230;52.390;10.256;2023-09-19T05:01:20;19.30;61.00
12329;DHT22;6230;52.390;10.256;2023-09-19T05:03:48;19.30;61.10
12329;DHT22;6230;52.390;10.256;2023-09-19T05:06:20;19.20;61.20
12329;DHT22;6230;52.390;10.256;2023-09-19T05:08:47;19.20;61.20
12329;DHT22;6230;52.390;10.256;2023-09-19T05:11:19;19.20;61.30
12329;DHT22;6230;52.390;10.256;2023-09-19T05:13:47;19.20;61.40
12329;DHT22;6230;52.390;10.256;2023-09-19T05:16:13;19.20;61.50
12329;DHT22;6230;52.390;10.256;2023-09-19T05:18:39;19.20;61.50
12329;DHT22;6230;52.390;10.256;2023-09-19T05:21:05;19.20;61.50
12329;DHT22;6230;52.390;10.256;2023-09-19T05:23:30;19.20;61.40
12329;DHT22;6230;52.390;10.256;2023-09-19T05:25:56;19.20;61.40
12329;DHT22;6230;52.390;10.256;2023-09-19T05:28:23;19.20;61.30
12329;DHT22;6230;52.390;10.256;2023-09-19T05:30:49;19.10;61.40
12329;DHT22;6230;52.390;10.256;2023-09-19T05:33:15;19.10;61.40
12329;DHT22;6230;52.390;10.256;2023-09-19T05:35:41;19.10;61.40
12329;DHT22;6230;52.390;10.256;2023-09-19T05:38:07;19.10;61.50
12329;DHT22;6230;52.390;10.256;2023-09-19T05:40:34;19.10;61.50
12329;DHT22;6230;52.390;10.256;2023-09-19T05:43:01;19.10;61.50
12329;DHT22;6230;52.390;10.256;2023-09-19T05:45:26;19.10;61.60
12329;DHT22;6230;52.390;10.256;2023-09-19T05:47:53;19.10;61.70
12329;DHT22;6230;52.390;10.256;2023-09-19T05:50:29;19.00;61.60
12329;DHT22;6230;52.390;10.256;2023-09-19T05:52:55;19.00;61.60
12329;DHT22;6230;52.390;10.256;2023-09-19T05:55:21;19.00;61.60
12329;DHT22;6230;52.390;10.256;2023-09-19T05:57:51;19.00;61.70
12329;DHT22;6230;52.390;10.256;2023-09-19T06:00:20;19.00;61.70
12329;DHT22;6230;52.390;10.256;2023-09-19T06:02:53;19.00;61.80
12329;DHT22;6230;52.390;10.256;2023-09-19T06:05:19;19.00;61.80
12329;DHT22;6230;52.390;10.256;2023-09-19T06:07:45;19.00;61.90
12329;DHT22;6230;52.390;10.256;2023-09-19T06:10:11;19.00;62.00
12329;DHT22;6230;52.390;10.256;2023-09-19T06:12:40;18.90;62.00
12329;DHT22;6230;52.390;10.256;2023-09-19T06:15:06;18.90;62.00
12329;DHT22;6230;52.390;10.256;2023-09-19T06:17:34;18.90;62.00
12329;DHT22;6230;52.390;10.256;2023-09-19T06:20:05;18.90;62.00
12329;DHT22;6230;52.390;10.256;2023-09-19T06:22:36;19.00;61.90
12329;DHT22;6230;52.390;10.256;2023-09-19T06:25:03;19.00;61.90
12329;DHT22;6230;52.390;10.256;2023-09-19T06:27:29;19.00;61.80
12329;DHT22;6230;52.390;10.256;2023-09-19T06:29:54;19.10;61.80
12329;DHT22;6230;52.390;10.256;2023-09-19T06:32:27;19.10;61.70
12329;DHT22;6230;52.390;10.256;2023-09-19T06:34:52;19.10;61.60
12329;DHT22;6230;52.390;10.256;2023-09-19T06:37:20;19.20;61.60
12329;DHT22;6230;52.390;10.256;2023-09-19T06:39:46;19.20;61.60
12329;DHT22;6230;52.390;10.256;2023-09-19T06:42:15;19.20;61.60
12329;DHT22;6230;52.390;10.256;2023-09-19T06:44:42;19.20;61.60
12329;DHT22;6230;52.390;10.256;2023-09-19T06:47:08;19.20;61.50
12329;DHT22;6230;52.390;10.256;2023-09-19T06:49:35;19.20;61.50
12329;DHT22;6230;52.390;10.256;2023-09-19T06:52:00;19.20;61.50
12329;DHT22;6230;52.390;10.256;2023-09-19T06:54:26;19.20;61.40
12329;DHT22;6230;52.390;10.256;2023-09-19T06:56:56;19.20;61.40
12329;DHT22;6230;52.390;10.256;2023-09-19T06:59:23;19.30;61.30
12329;DHT22;6230;52.390;10.256;2023-09-19T07:01:48;19.30;61.20
12329;DHT22;6230;52.390;10.256;2023-09-19T07:04:16;19.30;61.20
12329;DHT22;6230;52.390;10.256;2023-09-19T07:06:42;19.30;61.10
12329;DHT22;6230;52.390;10.256;2023-09-19T07:09:08;19.40;61.20
12329;DHT22;6230;52.390;10.256;2023-09-19T07:11:34;19.40;61.10
12329;DHT22;6230;52.390;10.256;2023-09-19T07:13:59;19.30;61.20
12329;DHT22;6230;52.390;10.256;2023-09-19T07:16:28;19.30;61.20
12329;DHT22;6230;52.390;10.256;2023-09-19T07:18:55;19.40;61.20
12329;DHT22;6230;52.390;10.256;2023-09-19T07:21:22;19.40;61.20
12329;DHT22;6230;52.390;10.256;2023-09-19T07:23:48;19.40;61.10
12329;DHT22;6230;52.390;10.256;2023-09-19T07:26:13;19.50;61.00
12329;DHT22;6230;52.390;10.256;2023-09-19T07:28:39;19.60;61.00
12329;DHT22;6230;52.390;10.256;2023-09-19T07:31:04;19.60;60.90
12329;DHT22;6230;52.390;10.256;2023-09-19T07:33:32;19.60;60.90
12329;DHT22;6230;52.390;10.256;2023-09-19T07:35:57;19.50;60.90
12329;DHT22;6230;52.390;10.256;2023-09-19T07:38:24;19.50;61.00
12329;DHT22;6230;52.390;10.256;2023-09-19T07:40:50;19.50;61.00
12329;DHT22;6230;52.390;10.256;2023-09-19T07:43:15;19.50;61.00
12329;DHT22;6230;52.390;10.256;2023-09-19T07:45:41;19.50;61.00
12329;DHT22;6230;52.390;10.256;2023-09-19T07:48:07;19.50;61.00
12329;DHT22;6230;52.390;10.256;2023-09-19T07:50:40;19.60;61.10
12329;DHT22;6230;52.390;10.256;2023-09-19T07:53:08;19.60;61.00
12329;DHT22;6230;52.390;10.256;2023-09-19T07:55:34;19.70;61.00
12329;DHT22;6230;52.390;10.256;2023-09-19T07:57:59;19.70;60.80
12329;DHT22;6230;52.390;10.256;2023-09-19T08:00:25;19.80;61.00
12329;DHT22;6230;52.390;10.256;2023-09-19T08:02:51;19.80;60.60
12329;DHT22;6230;52.390;10.256;2023-09-19T08:05:19;19.80;60.60
12329;DHT22;6230;52.390;10.256;2023-09-19T08:07:46;19.90;60.60
12329;DHT22;6230;52.390;10.256;2023-09-19T08:10:15;19.90;60.60
12329;DHT22;6230;52.390;10.256;2023-09-19T08:12:45;20.00;60.60
12329;DHT22;6230;52.390;10.256;2023-09-19T08:15:18;20.00;60.40
12329;DHT22;6230;52.390;10.256;2023-09-19T08:17:45;20.10;60.30
12329;DHT22;6230;52.390;10.256;2023-09-19T08:20:11;20.10;60.10
12329;DHT22;6230;52.390;10.256;2023-09-19T08:22:47;20.10;60.10
12329;DHT22;6230;52.390;10.256;2023-09-19T08:25:15;20.10;60.10
12329;DHT22;6230;52.390;10.256;2023-09-19T08:27:43;20.10;60.00
12329;DHT22;6230;52.390;10.256;2023-09-19T08:30:13;20.10;60.00
12329;DHT22;6230;52.390;10.256;2023-09-19T08:32:40;20.10;59.90
12329;DHT22;6230;52.390;10.256;2023-09-19T08:35:08;20.10;59.80
12329;DHT22;6230;52.390;10.256;2023-09-19T08:37:34;20.10;59.70
12329;DHT22;6230;52.390;10.256;2023-09-19T08:40:00;20.10;59.70
12329;DHT22;6230;52.390;10.256;2023-09-19T08:42:25;20.10;59.60
12329;DHT22;6230;52.390;10.256;2023-09-19T08:44:52;20.10;59.70
12329;DHT22;6230;52.390;10.256;2023-09-19T08:47:33;20.10;59.50
12329;DHT22;6230;52.390;10.256;2023-09-19T08:52:43;20.10;59.50
12329;DHT22;6230;52.390;10.256;2023-09-19T08:55:13;20.20;59.60
12329;DHT22;6230;52.390;10.256;2023-09-19T08:57:46;20.30;60.10
12329;DHT22;6230;52.390;10.256;2023-09-19T09:00:15;20.40;59.30
12329;DHT22;6230;52.390;10.256;2023-09-19T09:02:43;20.40;59.30
12329;DHT22;6230;52.390;10.256;2023-09-19T09:05:10;20.40;59.10
12329;DHT22;6230;52.390;10.256;2023-09-19T09:07:37;20.50;59.00
12329;DHT22;6230;52.390;10.256;2023-09-19T09:10:04;20.50;58.90
12329;DHT22;6230;52.390;10.256;2023-09-19T09:12:30;20.60;58.80
12329;DHT22;6230;52.390;10.256;2023-09-19T09:14:56;20.60;58.80
12329;DHT22;6230;52.390;10.256;2023-09-19T09:17:22;20.70;58.90
12329;DHT22;6230;52.390;10.256;2023-09-19T09:19:48;20.70;58.60
12329;DHT22;6230;52.390;10.256;2023-09-19T09:22:14;20.80;58.60
12329;DHT22;6230;52.390;10.256;2023-09-19T09:24:57;20.90;58.60
12329;DHT22;6230;52.390;10.256;2023-09-19T09:27:24;20.90;58.30
12329;DHT22;6230;52.390;10.256;2023-09-19T09:29:50;21.00;58.20
12329;DHT22;6230;52.390;10.256;2023-09-19T09:32:26;21.00;58.00
12329;DHT22;6230;52.390;10.256;2023-09-19T09:35:07;21.00;58.00
12329;DHT22;6230;52.390;10.256;2023-09-19T09:37:35;21.00;58.00
12329;DHT22;6230;52.390;10.256;2023-09-19T09:40:04;21.00;58.00
12329;DHT22;6230;52.390;10.256;2023-09-19T09:42:39;21.10;57.90
12329;DHT22;6230;52.390;10.256;2023-09-19T09:45:22;21.10;57.80
12329;DHT22;6230;52.390;10.256;2023-09-19T09:48:03;21.10;57.70
12329;DHT22;6230;52.390;10.256;2023-09-19T09:50:35;21.20;58.40
12329;DHT22;6230;52.390;10.256;2023-09-19T09:53:29;21.20;57.80
12329;DHT22;6230;52.390;10.256;2023-09-19T09:56:04;21.20;57.60
12329;DHT22;6230;52.390;10.256;2023-09-19T09:58:37;21.30;57.70
12329;DHT22;6230;52.390;10.256;2023-09-19T10:01:06;21.30;57.50
12329;DHT22;6230;52.390;10.256;2023-09-19T10:03:39;21.30;57.60
12329;DHT22;6230;52.390;10.256;2023-09-19T10:06:12;21.40;57.60
12329;DHT22;6230;52.390;10.256;2023-09-19T10:09:00;21.40;57.50
12329;DHT22;6230;52.390;10.256;2023-09-19T10:11:30;21.50;57.40
12329;DHT22;6230;52.390;10.256;2023-09-19T10:13:58;21.50;57.10
12329;DHT22;6230;52.390;10.256;2023-09-19T10:16:29;21.40;56.90
12329;DHT22;6230;52.390;10.256;2023-09-19T10:18:59;21.50;57.10
12329;DHT22;6230;52.390;10.256;2023-09-19T10:21:28;21.50;57.20
12329;DHT22;6230;52.390;10.256;2023-09-19T10:23:58;21.60;57.00
12329;DHT22;6230;52.390;10.256;2023-09-19T10:26:26;21.60;57.00
12329;DHT22;6230;52.390;10.256;2023-09-19T10:28:56;21.60;56.90
12329;DHT22;6230;52.390;10.256;2023-09-19T10:31:26;21.60;56.80
12329;DHT22;6230;52.390;10.256;2023-09-19T10:33:53;21.60;56.60
12329;DHT22;6230;52.390;10.256;2023-09-19T10:36:24;21.60;56.60
12329;DHT22;6230;52.390;10.256;2023-09-19T10:38:52;21.60;57.20
12329;DHT22;6230;52.390;10.256;2023-09-19T10:41:22;21.70;56.70
12329;DHT22;6230;52.390;10.256;2023-09-19T10:43:48;21.90;56.60
12329;DHT22;6230;52.390;10.256;2023-09-19T10:46:14;21.90;56.40
12329;DHT22;6230;52.390;10.256;2023-09-19T10:48:40;22.00;56.40
12329;DHT22;6230;52.390;10.256;2023-09-19T10:51:21;22.00;56.20
12329;DHT22;6230;52.390;10.256;2023-09-19T10:56:32;22.00;55.90
12329;DHT22;6230;52.390;10.256;2023-09-19T10:59:11;22.00;56.10
12329;DHT22;6230;52.390;10.256;2023-09-19T11:01:49;22.00;55.60
12329;DHT22;6230;52.390;10.256;2023-09-19T11:07:15;21.90;55.50
12329;DHT22;6230;52.390;10.256;2023-09-19T11:09:54;21.90;55.60
12329;DHT22;6230;52.390;10.256;2023-09-19T11:14:55;21.90;55.40
12329;DHT22;6230;52.390;10.256;2023-09-19T11:30:32;22.30;55.40
12329;DHT22;6230;52.390;10.256;2023-09-19T11:36:04;22.40;55.10
12329;DHT22;6230;52.390;10.256;2023-09-19T11:43:45;22.30;54.50
12329;DHT22;6230;52.390;10.256;2023-09-19T11:46:12;22.30;54.30
12329;DHT22;6230;52.390;10.256;2023-09-19T11:48:38;22.30;54.30
12329;DHT22;6230;52.390;10.256;2023-09-19T11:51:13;22.30;54.40
12329;DHT22;6230;52.390;10.256;2023-09-19T11:53:42;22.40;54.60
12329;DHT22;6230;52.390;10.256;2023-09-19T11:56:10;22.50;54.50
12329;DHT22;6230;52.390;10.256;2023-09-19T11:58:37;22.50;54.40
12329;DHT22;6230;52.390;10.256;2023-09-19T12:01:05;22.60;54.50
12329;DHT22;6230;52.390;10.256;2023-09-19T12:03:40;22.70;54.30
12329;DHT22;6230;52.390;10.256;2023-09-19T12:06:14;22.70;54.10
12329;DHT22;6230;52.390;10.256;2023-09-19T12:08:44;22.70;54.00
12329;DHT22;6230;52.390;10.256;2023-09-19T12:11:16;22.80;54.00
12329;DHT22;6230;52.390;10.256;2023-09-19T12:13:43;22.80;53.90
12329;DHT22;6230;52.390;10.256;2023-09-19T12:16:17;22.80;53.80
12329;DHT22;6230;52.390;10.256;2023-09-19T12:18:44;22.80;53.80
12329;DHT22;6230;52.390;10.256;2023-09-19T12:21:31;22.80;53.80
12329;DHT22;6230;52.390;10.256;2023-09-19T12:24:12;22.70;53.70
12329;DHT22;6230;52.390;10.256;2023-09-19T12:26:46;22.70;53.70
12329;DHT22;6230;52.390;10.256;2023-09-19T12:29:21;22.70;53.50
12329;DHT22;6230;52.390;10.256;2023-09-19T12:31:54;22.60;53.30
12329;DHT22;6230;52.390;10.256;2023-09-19T12:34:24;22.60;53.50
12329;DHT22;6230;52.390;10.256;2023-09-19T12:37:11;22.60;53.60
12329;DHT22;6230;52.390;10.256;2023-09-19T12:39:42;22.60;53.70
12329;DHT22;6230;52.390;10.256;2023-09-19T12:42:11;22.70;53.60
12329;DHT22;6230;52.390;10.256;2023-09-19T12:44:45;22.70;53.60
12329;DHT22;6230;52.390;10.256;2023-09-19T12:47:12;22.70;53.60
12329;DHT22;6230;52.390;10.256;2023-09-19T12:50:06;22.70;53.60
12329;DHT22;6230;52.390;10.256;2023-09-19T12:52:40;22.60;53.70
12329;DHT22;6230;52.390;10.256;2023-09-19T12:55:06;22.60;53.40
12329;DHT22;6230;52.390;10.256;2023-09-19T12:57:34;22.60;54.10
12329;DHT22;6230;52.390;10.256;2023-09-19T13:00:04;22.60;53.50
12329;DHT22;6230;52.390;10.256;2023-09-19T13:02:36;22.60;53.40
12329;DHT22;6230;52.390;10.256;2023-09-19T13:05:02;22.60;53.40
12329;DHT22;6230;52.390;10.256;2023-09-19T13:10:09;22.60;53.50
12329;DHT22;6230;52.390;10.256;2023-09-19T13:12:37;22.70;53.50
12329;DHT22;6230;52.390;10.256;2023-09-19T13:15:08;22.70;53.40
12329;DHT22;6230;52.390;10.256;2023-09-19T13:17:46;22.70;53.40
12329;DHT22;6230;52.390;10.256;2023-09-19T13:20:25;22.70;53.50
12329;DHT22;6230;52.390;10.256;2023-09-19T13:22:53;22.80;53.40
12329;DHT22;6230;52.390;10.256;2023-09-19T13:25:21;22.80;53.30
12329;DHT22;6230;52.390;10.256;2023-09-19T13:27:52;22.90;53.30
12329;DHT22;6230;52.390;10.256;2023-09-19T13:30:20;23.00;53.40
12329;DHT22;6230;52.390;10.256;2023-09-19T13:32:46;23.10;53.20
12329;DHT22;6230;52.390;10.256;2023-09-19T13:35:15;23.10;52.80
12329;DHT22;6230;52.390;10.256;2023-09-19T13:37:42;23.20;52.80
12329;DHT22;6230;52.390;10.256;2023-09-19T13:40:13;23.30;52.60
12329;DHT22;6230;52.390;10.256;2023-09-19T13:42:39;23.30;52.30
12329;DHT22;6230;52.390;10.256;2023-09-19T13:45:08;23.40;52.30
12329;DHT22;6230;52.390;10.256;2023-09-19T13:47:38;23.50;52.30
12329;DHT22;6230;52.390;10.256;2023-09-19T13:50:04;23.60;52.20
12329;DHT22;6230;52.390;10.256;2023-09-19T13:52:31;23.70;52.60
12329;DHT22;6230;52.390;10.256;2023-09-19T13:54:57;23.70;51.90
12329;DHT22;6230;52.390;10.256;2023-09-19T13:57:23;23.80;51.70
12329;DHT22;6230;52.390;10.256;2023-09-19T13:59:49;23.80;51.80
12329;DHT22;6230;52.390;10.256;2023-09-19T14:02:15;23.80;51.60
12329;DHT22;6230;52.390;10.256;2023-09-19T14:04:43;23.80;51.60
12329;DHT22;6230;52.390;10.256;2023-09-19T14:07:09;23.90;51.60
12329;DHT22;6230;52.390;10.256;2023-09-19T14:09:36;24.00;51.40
12329;DHT22;6230;52.390;10.256;2023-09-19T14:12:02;24.00;51.10
12329;DHT22;6230;52.390;10.256;2023-09-19T14:14:27;24.10;51.10
12329;DHT22;6230;52.390;10.256;2023-09-19T14:16:53;24.10;51.20
12329;DHT22;6230;52.390;10.256;2023-09-19T14:19:19;24.20;50.90
12329;DHT22;6230;52.390;10.256;2023-09-19T14:21:44;24.20;50.60
12329;DHT22;6230;52.390;10.256;2023-09-19T14:24:10;24.20;50.60
12329;DHT22;6230;52.390;10.256;2023-09-19T14:26:37;24.20;50.60
12329;DHT22;6230;52.390;10.256;2023-09-19T14:29:03;24.20;50.50
12329;DHT22;6230;52.390;10.256;2023-09-19T14:31:29;24.20;50.60
12329;DHT22;6230;52.390;10.256;2023-09-19T14:33:57;24.10;51.40
12329;DHT22;6230;52.390;10.256;2023-09-19T14:36:23;24.10;50.30
12329;DHT22;6230;52.390;10.256;2023-09-19T14:38:52;24.00;50.00
12329;DHT22;6230;52.390;10.256;2023-09-19T14:41:19;23.90;50.20
12329;DHT22;6230;52.390;10.256;2023-09-19T14:43:45;23.80;50.40
12329;DHT22;6230;52.390;10.256;2023-09-19T14:46:10;23.80;50.40
12329;DHT22;6230;52.390;10.256;2023-09-19T14:48:36;23.80;50.40
12329;DHT22;6230;52.390;10.256;2023-09-19T14:51:03;23.80;50.60
12329;DHT22;6230;52.390;10.256;2023-09-19T14:53:28;23.80;50.50
12329;DHT22;6230;52.390;10.256;2023-09-19T14:55:54;23.80;50.40
12329;DHT22;6230;52.390;10.256;2023-09-19T14:58:20;23.80;50.50
12329;DHT22;6230;52.390;10.256;2023-09-19T15:00:46;23.90;50.50
12329;DHT22;6230;52.390;10.256;2023-09-19T15:03:12;23.90;50.20
12329;DHT22;6230;52.390;10.256;2023-09-19T15:05:39;23.90;50.20
12329;DHT22;6230;52.390;10.256;2023-09-19T15:08:04;23.90;50.20
12329;DHT22;6230;52.390;10.256;2023-09-19T15:10:31;23.80;50.20
12329;DHT22;6230;52.390;10.256;2023-09-19T15:12:56;23.80;50.20
12329;DHT22;6230;52.390;10.256;2023-09-19T15:15:22;23.80;50.30
12329;DHT22;6230;52.390;10.256;2023-09-19T15:17:47;23.80;50.20
12329;DHT22;6230;52.390;10.256;2023-09-19T15:20:13;23.70;49.60
12329;DHT22;6230;52.390;10.256;2023-09-19T15:22:39;23.60;49.90
12329;DHT22;6230;52.390;10.256;2023-09-19T15:25:05;23.60;49.90
12329;DHT22;6230;52.390;10.256;2023-09-19T15:27:31;23.50;49.90
12329;DHT22;6230;52.390;10.256;2023-09-19T15:29:59;23.50;49.90
12329;DHT22;6230;52.390;10.256;2023-09-19T15:32:26;23.50;49.80
12329;DHT22;6230;52.390;10.256;2023-09-19T15:34:51;23.40;50.00
12329;DHT22;6230;52.390;10.256;2023-09-19T15:37:17;23.40;50.00
12329;DHT22;6230;52.390;10.256;2023-09-19T15:39:43;23.40;50.00
12329;DHT22;6230;52.390;10.256;2023-09-19T15:42:10;23.40;50.10
12329;DHT22;6230;52.390;10.256;2023-09-19T15:44:36;23.30;50.00
12329;DHT22;6230;52.390;10.256;2023-09-19T15:47:03;23.30;50.50
12329;DHT22;6230;52.390;10.256;2023-09-19T15:49:28;23.30;49.90
12329;DHT22;6230;52.390;10.256;2023-09-19T15:51:54;23.20;49.90
12329;DHT22;6230;52.390;10.256;2023-09-19T15:54:20;23.20;50.00
12329;DHT22;6230;52.390;10.256;2023-09-19T15:56:46;23.20;50.00
12329;DHT22;6230;52.390;10.256;2023-09-19T15:59:12;23.20;50.00
12329;DHT22;6230;52.390;10.256;2023-09-19T16:01:39;23.10;50.00
12329;DHT22;6230;52.390;10.256;2023-09-19T16:04:08;23.10;50.10
12329;DHT22;6230;52.390;10.256;2023-09-19T16:06:35;23.10;50.10
12329;DHT22;6230;52.390;10.256;2023-09-19T16:09:01;23.10;50.10
12329;DHT22;6230;52.390;10.256;2023-09-19T16:11:30;23.10;50.20
12329;DHT22;6230;52.390;10.256;2023-09-19T16:13:57;23.00;50.10
12329;DHT22;6230;52.390;10.256;2023-09-19T16:16:23;23.00;50.10
12329;DHT22;6230;52.390;10.256;2023-09-19T16:18:50;22.90;50.20